Time;durP1;ratioP1;P1;durP2;ratioP2;P2;SDS_P1;SDS_P2;PMS_P1;PMS_P2;Temp;Humidity;BMP_temperature;BMP_pressure;BME280_temperature;BME280_humidity;BME280_pressure;Samples;Min_cycle;Max_cycle;Signal;HPM_P1;HPM_P2
2023/03/15 00:01:46;;;;;;;16.95;3.88;;;;;;;3.20;84.58;100701.53;5073083;28;20043;-52
2023/03/15 00:04:13;;;;;;;12.60;3.75;;;;;;;3.17;84.81;100703.53;5074055;28;20045;-50
2023/03/15 00:06:40;;;;;;;21.13;4.32;;;;;;;3.22;85.59;100698.78;5073920;28;20041;-49
2023/03/15 00:09:07;;;;;;;17.15;3.80;;;;;;;3.13;86.30;100707.28;5073773;28;20532;-52
2023/03/15 00:11:33;;;;;;;16.00;4.07;;;;;;;3.03;87.18;100707.94;5074052;28;20089;-51
2023/03/15 00:14:01;;;;;;;12.88;4.25;;;;;;;3.11;87.85;100717.91;5073960;28;20521;-49
2023/03/15 00:16:28;;;;;;;18.58;4.30;;;;;;;3.11;89.19;100720.53;5073940;28;20055;-52
2023/03/15 00:18:55;;;;;;;22.60;4.70;;;;;;;3.00;90.84;100721.25;5073582;28;20044;-48
2023/03/15 00:21:22;;;;;;;21.85;4.57;;;;;;;2.92;92.03;100728.78;5073831;28;20098;-50
2023/03/15 00:23:49;;;;;;;19.65;4.50;;;;;;;2.89;93.15;100729.00;5073925;28;20048;-50
2023/03/15 00:26:16;;;;;;;13.65;4.50;;;;;;;2.94;93.36;100740.00;5073850;28;20048;-50
2023/03/15 00:28:43;;;;;;;17.90;4.68;;;;;;;2.99;94.21;100722.19;5072425;28;20048;-52
2023/03/15 00:31:16;;;;;;;21.52;4.75;;;;;;;2.93;94.84;100729.63;5073985;28;20098;-51
2023/03/15 00:33:44;;;;;;;12.07;4.20;;;;;;;2.97;95.55;100736.34;5073594;28;20070;-51
2023/03/15 00:36:11;;;;;;;15.82;4.68;;;;;;;2.91;95.30;100745.47;5072681;28;20074;-52
2023/03/15 00:38:39;;;;;;;14.13;4.82;;;;;;;2.79;97.10;100741.06;5073332;28;20131;-50
2023/03/15 00:41:08;;;;;;;13.00;4.75;;;;;;;2.78;98.45;100748.06;5073459;28;20449;-49
2023/03/15 00:43:35;;;;;;;13.45;5.18;;;;;;;2.82;99.44;100753.94;5089081;28;20450;-52
2023/03/15 00:46:02;;;;;;;16.55;5.18;;;;;;;2.72;100.00;100740.63;5073665;28;20091;-52
2023/03/15 00:48:30;;;;;;;24.27;5.57;;;;;;;2.82;100.00;100743.47;5072959;28;20071;-52
2023/03/15 00:51:11;;;;;;;20.95;5.32;;;;;;;2.80;100.00;100737.47;5073585;28;20040;-52
2023/03/15 00:53:41;;;;;;;21.08;5.97;;;;;;;2.69;100.00;100733.84;5073458;28;20045;-51
2023/03/15 00:56:12;;;;;;;26.73;6.43;;;;;;;2.59;100.00;100738.00;5073457;28;20130;-51
2023/03/15 00:58:39;;;;;;;18.30;5.82;;;;;;;2.81;100.00;100733.94;5073134;28;20145;-52
2023/03/15 01:01:10;;;;;;;19.98;6.60;;;;;;;2.89;100.00;100742.09;5072536;28;20048;-51
2023/03/15 01:03:39;;;;;;;15.52;6.13;;;;;;;2.97;100.00;100736.34;5072825;28;20390;-51
2023/03/15 01:06:09;;;;;;;23.65;6.60;;;;;;;2.84;100.00;100734.56;5054343;28;20770;-52
2023/03/15 01:08:35;;;;;;;22.77;6.82;;;;;;;2.76;100.00;100741.25;5071678;28;20406;-50
2023/03/15 01:11:05;;;;;;;14.90;6.45;;;;;;;2.86;100.00;100739.72;5073385;28;20048;-52
2023/03/15 01:13:32;;;;;;;19.80;6.68;;;;;;;2.90;100.00;100741.16;5073058;28;20482;-49
2023/03/15 01:15:59;;;;;;;22.45;6.90;;;;;;;3.19;100.00;100748.81;5073132;28;20041;-51
2023/03/15 01:18:27;;;;;;;26.75;7.75;;;;;;;3.12;100.00;100747.56;5072605;28;20066;-53
2023/03/15 01:20:56;;;;;;;18.17;6.43;;;;;;;2.96;100.00;100751.22;5072806;28;20037;-51
2023/03/15 01:23:23;;;;;;;23.27;6.70;;;;;;;3.10;100.00;100758.16;5073318;28;20048;-50
2023/03/15 01:25:49;;;;;;;20.52;7.68;;;;;;;3.14;100.00;100754.38;5073150;28;20490;-53
2023/03/15 01:28:16;;;;;;;24.80;7.32;;;;;;;3.19;100.00;100754.91;5072988;28;20048;-51
2023/03/15 01:30:49;;;;;;;27.17;6.93;;;;;;;3.13;100.00;100757.09;5072774;28;20539;-51
2023/03/15 01:33:16;;;;;;;20.05;7.15;;;;;;;3.10;100.00;100757.31;5072902;28;20064;-51
2023/03/15 01:35:43;;;;;;;20.23;7.18;;;;;;;3.19;99.94;100757.53;5073069;28;20059;-50
2023/03/15 01:38:10;;;;;;;19.08;6.68;;;;;;;3.12;100.00;100761.50;5073035;28;20559;-52
2023/03/15 01:40:45;;;;;;;19.13;6.60;;;;;;;3.10;99.40;100770.44;5072614;28;20048;-51
2023/03/15 01:43:17;;;;;;;18.85;6.68;;;;;;;3.06;99.66;100768.00;5073265;28;20049;-52
2023/03/15 01:46:06;;;;;;;22.17;7.90;;;;;;;3.10;100.00;100765.19;5072890;28;20052;-50
2023/03/15 01:48:43;;;;;;;22.70;8.05;;;;;;;3.10;99.60;100779.13;5072464;28;20043;-49
2023/03/15 01:54:09;;;;;;;24.33;8.88;;;;;;;3.25;100.00;100766.75;5111325;27;20143;-50
2023/03/15 01:56:43;;;;;;;21.13;7.97;;;;;;;3.21;100.00;100771.34;5111144;28;20042;-53
2023/03/15 01:59:15;;;;;;;21.70;9.02;;;;;;;3.19;99.48;100773.25;5111109;28;20047;-50
2023/03/15 02:01:44;;;;;;;24.67;8.40;;;;;;;3.16;99.26;100772.63;5110288;28;20096;-50
2023/03/15 02:04:17;;;;;;;21.25;8.75;;;;;;;3.07;99.35;100774.06;5110700;28;20047;-50
2023/03/15 02:06:46;;;;;;;29.90;9.25;;;;;;;3.08;100.00;100768.75;5110640;28;20427;-52
2023/03/15 02:09:16;;;;;;;27.88;8.90;;;;;;;3.02;100.00;100773.56;5111194;28;20070;-52
2023/03/15 02:11:44;;;;;;;25.95;10.32;;;;;;;3.14;100.00;100771.88;5110508;28;20050;-51
2023/03/15 02:14:12;;;;;;;26.33;10.18;;;;;;;3.23;100.00;100772.09;5111013;28;20067;-53
2023/03/15 02:16:43;;;;;;;26.77;10.15;;;;;;;3.24;100.00;100772.94;5111064;28;20052;-54
2023/03/15 02:19:29;;;;;;;22.52;9.40;;;;;;;3.01;100.00;100777.13;5110033;28;20416;-52
2023/03/15 02:22:11;;;;;;;22.10;9.13;;;;;;;3.08;100.00;100779.22;5110859;28;20073;-52
2023/03/15 02:24:53;;;;;;;21.90;7.97;;;;;;;2.97;99.87;100773.88;5110372;28;20474;-50
2023/03/15 02:27:29;;;;;;;17.08;7.57;;;;;;;3.04;100.00;100772.53;5110521;28;20093;-53
2023/03/15 02:29:56;;;;;;;23.02;7.65;;;;;;;2.75;100.00;100771.00;5110712;28;20048;-54
2023/03/15 02:32:23;;;;;;;17.60;7.30;;;;;;;2.76;100.00;100780.56;5110371;28;20078;-51
2023/03/15 02:34:49;;;;;;;17.17;7.13;;;;;;;2.65;100.00;100782.09;5110478;28;20493;-53
2023/03/15 02:37:16;;;;;;;15.88;6.47;;;;;;;2.75;100.00;100779.72;5109408;28;20168;-51
2023/03/15 02:39:45;;;;;;;21.60;7.70;;;;;;;2.85;100.00;100790.41;5110096;28;20051;-50
2023/03/15 02:42:12;;;;;;;17.70;7.80;;;;;;;2.80;99.33;100793.38;5110393;28;20078;-50
2023/03/15 02:44:42;;;;;;;17.75;8.30;;;;;;;2.49;99.31;100795.41;5109951;28;20374;-49
2023/03/15 02:47:18;;;;;;;19.60;7.95;;;;;;;2.17;100.00;100796.66;5110219;28;20493;-51
2023/03/15 02:49:49;;;;;;;20.88;8.98;;;;;;;2.20;100.00;100799.91;5110314;28;20084;-50
2023/03/15 02:52:19;;;;;;;21.77;9.18;;;;;;;2.17;100.00;100800.09;5109820;28;20068;-50
2023/03/15 02:54:45;;;;;;;18.75;9.07;;;;;;;2.38;100.00;100802.25;5109818;28;20039;-51
2023/03/15 02:57:14;;;;;;;23.88;9.13;;;;;;;2.25;100.00;100805.66;5110075;28;20092;-51
2023/03/15 02:59:42;;;;;;;21.05;9.63;;;;;;;2.40;100.00;100793.38;5109560;28;20507;-51
2023/03/15 03:02:11;;;;;;;22.63;10.10;;;;;;;2.46;100.00;100806.06;5109297;28;20481;-53
2023/03/15 03:04:40;;;;;;;21.17;9.27;;;;;;;2.35;100.00;100811.16;5099721;28;20467;-52
2023/03/15 03:07:07;;;;;;;20.42;8.93;;;;;;;2.34;100.00;100819.94;5092962;28;20044;-52
2023/03/15 03:09:42;;;;;;;24.27;9.57;;;;;;;2.20;100.00;100817.38;5096115;28;20048;-53
2023/03/15 03:12:10;;;;;;;19.77;9.00;;;;;;;2.23;100.00;100810.16;5096177;28;20047;-53
2023/03/15 03:14:37;;;;;;;24.05;9.35;;;;;;;2.26;100.00;100812.59;5096285;28;20044;-52
2023/03/15 03:17:10;;;;;;;21.50;9.30;;;;;;;2.25;100.00;100823.16;5096011;28;20044;-51
2023/03/15 03:19:39;;;;;;;22.05;9.38;;;;;;;2.30;100.00;100824.53;5095919;28;20494;-53
2023/03/15 03:22:05;;;;;;;19.95;9.05;;;;;;;2.40;100.00;100830.03;5095854;28;20500;-52
2023/03/15 03:24:32;;;;;;;22.05;8.98;;;;;;;2.22;100.00;100839.91;5095992;28;20493;-51
2023/03/15 03:26:59;;;;;;;21.33;9.02;;;;;;;2.11;100.00;100832.75;5095898;28;20044;-52
2023/03/15 03:29:30;;;;;;;20.20;9.52;;;;;;;2.19;100.00;100832.25;5096120;28;20525;-50
2023/03/15 03:31:59;;;;;;;21.50;10.07;;;;;;;2.32;100.00;100834.09;5095587;28;20044;-50
2023/03/15 03:34:26;;;;;;;20.77;9.52;;;;;;;2.34;100.00;100846.13;5095806;28;20044;-53
2023/03/15 03:36:54;;;;;;;21.77;9.68;;;;;;;2.13;100.00;100844.88;5095612;28;20072;-50
2023/03/15 03:39:34;;;;;;;20.00;9.57;;;;;;;2.25;100.00;100844.09;5095717;28;20496;-51
2023/03/15 03:42:01;;;;;;;20.85;10.15;;;;;;;2.29;100.00;100849.06;5095643;28;20519;-51
2023/03/15 03:44:28;;;;;;;23.45;10.40;;;;;;;2.41;100.00;100850.03;5095817;28;20427;-53
2023/03/15 03:46:54;;;;;;;21.33;10.07;;;;;;;2.38;100.00;100852.84;5095292;28;20052;-51
2023/03/15 03:49:21;;;;;;;20.38;10.20;;;;;;;2.28;100.00;100867.47;5095459;28;20550;-53
2023/03/15 03:51:48;;;;;;;22.27;10.60;;;;;;;2.25;100.00;100863.25;5095015;28;20072;-52
2023/03/15 03:54:15;;;;;;;23.73;9.85;;;;;;;2.27;100.00;100864.03;5095115;28;20443;-53
2023/03/15 03:56:43;;;;;;;23.70;9.52;;;;;;;2.14;100.00;100867.50;5095383;28;20051;-49
2023/03/15 03:59:10;;;;;;;26.38;10.32;;;;;;;1.99;100.00;100867.53;5095019;28;20074;-50
2023/03/15 04:01:47;;;;;;;20.27;9.93;;;;;;;2.01;100.00;100864.81;5093414;28;20044;-51
2023/03/15 04:04:14;;;;;;;22.00;10.23;;;;;;;1.92;100.00;100879.31;5094804;28;20040;-52
2023/03/15 04:06:44;;;;;;;23.45;10.55;;;;;;;2.04;100.00;100873.31;5095068;28;20052;-50
2023/03/15 04:09:13;;;;;;;20.33;10.98;;;;;;;2.07;100.00;100885.34;5095043;28;20058;-53
2023/03/15 04:11:43;;;;;;;20.98;10.93;;;;;;;2.07;100.00;100880.97;5095254;28;20157;-52
2023/03/15 04:14:11;;;;;;;24.65;9.98;;;;;;;2.00;100.00;100891.91;5094663;28;20050;-50
2023/03/15 04:16:37;;;;;;;17.95;9.05;;;;;;;2.17;100.00;100894.31;5094131;28;20603;-50
2023/03/15 04:19:07;;;;;;;21.15;10.70;;;;;;;2.01;100.00;100899.66;5094839;28;20073;-52
2023/03/15 04:21:35;;;;;;;23.05;10.40;;;;;;;2.08;100.00;100905.38;5094791;28;20068;-51
2023/03/15 04:24:17;;;;;;;23.77;10.68;;;;;;;2.07;100.00;100915.00;5094335;28;20429;-53
2023/03/15 04:26:57;;;;;;;20.27;10.57;;;;;;;2.11;100.00;100916.50;5095027;28;20143;-50
2023/03/15 04:29:42;;;;;;;29.30;11.43;;;;;;;2.09;100.00;100915.75;5094781;28;20052;-50
2023/03/15 04:32:29;;;;;;;21.15;9.90;;;;;;;2.12;100.00;100912.09;5094487;28;20127;-52
2023/03/15 04:35:08;;;;;;;20.73;10.38;;;;;;;2.22;100.00;100913.19;5094601;28;20044;-51
2023/03/15 04:37:43;;;;;;;20.15;10.68;;;;;;;2.10;100.00;100911.34;5094430;28;20075;-49
2023/03/15 04:40:33;;;;;;;21.85;10.13;;;;;;;2.14;100.00;100918.06;5094086;28;20067;-52
2023/03/15 04:43:21;;;;;;;18.10;9.32;;;;;;;2.18;100.00;100909.06;5094104;28;20127;-53
2023/03/15 04:46:00;;;;;;;16.95;9.20;;;;;;;2.24;100.00;100926.19;5094396;28;20494;-53
2023/03/15 04:48:47;;;;;;;16.00;8.93;;;;;;;2.19;100.00;100921.25;5093763;28;20044;-52
2023/03/15 04:51:34;;;;;;;16.17;8.48;;;;;;;2.21;100.00;100926.38;5093825;28;20063;-52
2023/03/15 04:54:22;;;;;;;14.30;6.82;;;;;;;2.18;100.00;100926.56;5093947;28;20036;-53
2023/03/15 04:57:02;;;;;;;14.43;7.32;;;;;;;2.05;100.00;100931.72;5094342;28;20130;-50
2023/03/15 04:59:49;;;;;;;12.27;7.00;;;;;;;1.97;100.00;100932.19;5093520;28;20454;-50
2023/03/15 05:02:29;;;;;;;15.35;7.07;;;;;;;2.20;100.00;100943.88;5093307;28;20043;-50
2023/03/15 05:05:16;;;;;;;14.25;6.75;;;;;;;1.93;100.00;100946.41;5093448;28;20127;-51
2023/03/15 05:07:53;;;;;;;14.02;6.95;;;;;;;2.08;100.00;100955.09;5090770;28;20055;-50
2023/03/15 05:10:30;;;;;;;12.38;6.55;;;;;;;1.92;100.00;100955.19;5094031;28;20067;-50
2023/03/15 05:13:13;;;;;;;13.10;7.25;;;;;;;1.92;100.00;100945.53;5092794;28;20535;-52
2023/03/15 05:16:01;;;;;;;12.38;7.35;;;;;;;2.05;100.00;100950.88;5093598;28;20508;-53
2023/03/15 05:18:44;;;;;;;15.07;7.47;;;;;;;2.18;100.00;100960.59;5093545;28;20043;-51
2023/03/15 05:21:28;;;;;;;16.90;8.02;;;;;;;2.15;100.00;100961.63;5093740;28;20432;-49
2023/03/15 05:24:06;;;;;;;16.75;7.88;;;;;;;2.21;100.00;100965.66;5093918;28;20511;-51
2023/03/15 05:26:53;;;;;;;14.35;8.43;;;;;;;2.16;100.00;100972.94;5093436;28;20043;-50
2023/03/15 05:29:39;;;;;;;18.50;8.60;;;;;;;2.22;100.00;100975.16;5093636;28;20489;-50
2023/03/15 05:32:26;;;;;;;14.75;8.32;;;;;;;2.10;100.00;100982.84;5093249;28;20127;-50
2023/03/15 05:35:12;;;;;;;15.63;8.82;;;;;;;2.15;100.00;100982.56;5093469;28;20044;-52
2023/03/15 05:37:46;;;;;;;17.10;9.52;;;;;;;2.23;100.00;100992.56;5093431;28;20079;-50
2023/03/15 05:40:29;;;;;;;19.60;9.77;;;;;;;2.37;100.00;100997.81;5093731;28;20040;-51
2023/03/15 05:43:04;;;;;;;19.23;9.85;;;;;;;2.31;100.00;101000.81;5093494;28;20435;-51
2023/03/15 05:45:52;;;;;;;17.38;9.68;;;;;;;2.19;100.00;101005.00;5093114;28;20044;-51
2023/03/15 05:48:36;;;;;;;17.95;9.32;;;;;;;2.22;100.00;101004.81;5092976;28;20040;-50
2023/03/15 05:51:23;;;;;;;16.98;9.75;;;;;;;2.22;100.00;101015.28;5093096;28;20497;-52
2023/03/15 05:54:06;;;;;;;21.05;10.38;;;;;;;2.34;100.00;101018.09;5093317;28;20037;-49
2023/03/15 05:56:45;;;;;;;19.20;10.40;;;;;;;2.28;100.00;101022.75;5093129;28;20455;-50
2023/03/15 05:59:32;;;;;;;19.90;10.30;;;;;;;2.36;100.00;101022.28;5092790;28;20444;-50
2023/03/15 06:02:18;;;;;;;18.88;9.20;;;;;;;2.29;100.00;101037.56;5092428;28;20082;-51
2023/03/15 06:04:59;;;;;;;17.65;9.40;;;;;;;2.35;100.00;101040.69;5093291;28;20063;-51
2023/03/15 06:07:27;;;;;;;17.20;9.43;;;;;;;2.41;100.00;101033.31;5093171;28;20048;-50
2023/03/15 06:09:54;;;;;;;21.42;10.40;;;;;;;2.64;100.00;101036.31;5093177;28;20502;-51
2023/03/15 06:12:20;;;;;;;19.65;10.65;;;;;;;2.57;100.00;101042.88;5093295;28;20424;-50
2023/03/15 06:14:48;;;;;;;19.48;10.05;;;;;;;2.61;100.00;101047.81;5093150;28;20048;-53
2023/03/15 06:17:14;;;;;;;20.35;9.95;;;;;;;2.43;100.00;101044.53;5092997;28;20059;-53
2023/03/15 06:19:43;;;;;;;19.10;9.93;;;;;;;2.42;100.00;101057.72;5092738;28;20040;-51
2023/03/15 06:22:09;;;;;;;25.92;11.07;;;;;;;2.36;100.00;101058.13;5093193;28;20052;-53
2023/03/15 06:24:43;;;;;;;22.20;11.02;;;;;;;2.46;100.00;101060.06;5093042;28;20052;-51
2023/03/15 06:27:11;;;;;;;20.48;11.25;;;;;;;2.50;100.00;101061.56;5093034;28;20465;-53
2023/03/15 06:29:37;;;;;;;18.15;10.65;;;;;;;2.65;100.00;101053.69;5092686;28;20051;-50
2023/03/15 06:32:04;;;;;;;20.58;11.50;;;;;;;2.66;100.00;101058.84;5092694;28;20440;-54
2023/03/15 06:34:33;;;;;;;16.73;9.45;;;;;;;2.68;100.00;101062.22;5092580;28;20505;-52
2023/03/15 06:37:00;;;;;;;23.55;11.80;;;;;;;2.58;100.00;101068.09;5092765;28;20058;-52
2023/03/15 06:39:26;;;;;;;17.63;9.77;;;;;;;2.59;100.00;101075.03;5094021;28;20044;-50
2023/03/15 06:41:57;;;;;;;21.95;10.13;;;;;;;2.56;100.00;101077.84;5096674;28;20075;-51
2023/03/15 06:44:25;;;;;;;24.95;10.45;;;;;;;2.54;100.00;101080.56;5096403;28;20098;-52
2023/03/15 06:46:56;;;;;;;18.45;10.40;;;;;;;2.58;100.00;101083.81;5095957;28;20120;-53
2023/03/15 06:49:22;;;;;;;21.88;11.35;;;;;;;2.56;100.00;101102.25;5095554;28;20127;-52
2023/03/15 06:51:49;;;;;;;20.38;11.15;;;;;;;2.60;100.00;101109.00;5095817;28;20105;-51
2023/03/15 06:54:16;;;;;;;21.08;11.50;;;;;;;2.63;100.00;101114.03;5095921;28;20558;-54
2023/03/15 06:56:55;;;;;;;24.77;11.32;;;;;;;2.71;100.00;101115.34;5095537;28;20047;-50
2023/03/15 06:59:23;;;;;;;20.38;10.57;;;;;;;2.61;100.00;101115.09;5095674;28;20043;-51
2023/03/15 07:01:50;;;;;;;22.77;10.55;;;;;;;2.74;100.00;101120.41;5094781;28;20075;-53
2023/03/15 07:04:17;;;;;;;23.40;10.85;;;;;;;2.81;100.00;101126.97;5095854;28;20553;-53
2023/03/15 07:06:44;;;;;;;20.33;9.90;;;;;;;2.97;100.00;101127.69;5086261;28;20039;-53
2023/03/15 07:09:10;;;;;;;20.65;10.73;;;;;;;3.12;100.00;101133.75;5069175;28;20040;-53
2023/03/15 07:11:37;;;;;;;21.65;11.18;;;;;;;3.10;100.00;101132.19;5115237;28;20055;-52
2023/03/15 07:14:04;;;;;;;20.45;11.27;;;;;;;3.18;100.00;101140.38;5115498;28;20049;-50
2023/03/15 07:16:31;;;;;;;20.83;10.95;;;;;;;3.12;99.79;101148.66;5110478;28;20444;-52
2023/03/15 07:18:58;;;;;;;23.05;11.60;;;;;;;3.28;99.01;101146.75;5095109;28;20044;-53
2023/03/15 07:21:26;;;;;;;24.83;11.10;;;;;;;3.25;98.99;101158.25;5095402;28;20051;-49
2023/03/15 07:23:53;;;;;;;23.58;11.93;;;;;;;3.14;98.67;101171.19;5095824;28;20079;-50
2023/03/15 07:26:20;;;;;;;23.52;12.18;;;;;;;3.13;98.38;101173.91;5095377;28;20052;-51
2023/03/15 07:28:47;;;;;;;27.83;11.85;;;;;;;3.08;98.90;101171.59;5095294;28;20067;-50
2023/03/15 07:31:13;;;;;;;22.63;11.73;;;;;;;3.07;98.61;101169.91;5095302;28;20105;-51
2023/03/15 07:33:41;;;;;;;21.30;11.73;;;;;;;3.04;99.38;101176.19;5095075;28;20040;-51
2023/03/15 07:36:07;;;;;;;23.42;12.07;;;;;;;3.17;98.64;101185.91;5095677;28;20097;-49
2023/03/15 07:38:35;;;;;;;24.60;11.20;;;;;;;3.18;98.09;101185.78;5095384;28;20044;-50
2023/03/15 07:41:03;;;;;;;25.65;11.75;;;;;;;3.22;98.99;101189.06;5095475;28;20489;-53
2023/03/15 07:43:31;;;;;;;23.25;11.07;;;;;;;3.42;98.00;101190.44;5094681;28;20436;-52
2023/03/15 07:46:08;;;;;;;24.20;9.77;;;;;;;3.33;96.87;101193.66;5095048;28;20401;-50
2023/03/15 07:48:35;;;;;;;23.83;10.13;;;;;;;3.49;95.59;101204.03;5094626;28;20072;-51
2023/03/15 07:51:02;;;;;;;17.60;9.70;;;;;;;3.52;96.29;101202.03;5095116;28;20048;-52
2023/03/15 07:53:28;;;;;;;21.98;9.75;;;;;;;3.67;94.40;101209.88;5094639;28;20508;-51
2023/03/15 07:55:55;;;;;;;25.13;10.60;;;;;;;3.69;94.11;101208.84;5095259;28;20074;-48
2023/03/15 07:58:22;;;;;;;20.02;9.20;;;;;;;3.59;95.15;101218.25;5094808;28;20075;-52
2023/03/15 08:00:53;;;;;;;22.67;9.73;;;;;;;3.63;94.22;101215.31;5094528;28;20051;-51
2023/03/15 08:03:20;;;;;;;16.67;8.88;;;;;;;3.79;93.59;101214.34;5094166;28;20047;-49
2023/03/15 08:05:47;;;;;;;21.45;8.65;;;;;;;3.90;95.05;101229.41;5095201;28;20048;-49
2023/03/15 08:08:13;;;;;;;17.35;8.45;;;;;;;3.73;93.17;101227.84;5094645;28;20052;-52
2023/03/15 08:10:42;;;;;;;17.65;8.38;;;;;;;3.62;94.29;101237.28;5080692;28;20105;-49
2023/03/15 08:13:08;;;;;;;24.38;7.85;;;;;;;3.62;92.69;101249.53;5094924;28;20485;-50
2023/03/15 08:15:35;;;;;;;17.77;7.85;;;;;;;3.97;91.57;101247.28;5089791;28;20032;-49
2023/03/15 08:18:02;;;;;;;21.85;7.50;;;;;;;3.81;90.03;101247.44;5090001;28;20036;-51
2023/03/15 08:20:32;;;;;;;18.48;7.40;;;;;;;3.89;90.55;101249.56;5089719;28;20093;-49
2023/03/15 08:23:00;;;;;;;21.77;6.88;;;;;;;4.03;88.96;101259.19;5056628;28;20110;-51
2023/03/15 08:25:27;;;;;;;18.85;7.40;;;;;;;3.98;88.35;101258.63;5078386;28;20039;-49
2023/03/15 08:27:54;;;;;;;13.95;6.38;;;;;;;4.05;88.50;101257.28;5073748;28;20039;-49
2023/03/15 08:30:21;;;;;;;14.18;6.32;;;;;;;4.01;85.55;101271.56;5091386;28;20066;-50
2023/03/15 08:32:51;;;;;;;14.75;6.28;;;;;;;4.24;83.85;101275.34;5087413;28;20056;-53
2023/03/15 08:35:21;;;;;;;18.95;6.68;;;;;;;4.30;84.73;101277.56;5082689;28;20539;-53
2023/03/15 08:37:47;;;;;;;23.02;7.70;;;;;;;4.24;85.42;101277.97;5093141;28;20743;-50
2023/03/15 08:40:25;;;;;;;19.35;7.55;;;;;;;4.32;86.13;101287.97;5084543;28;20139;-50
2023/03/15 08:42:53;;;;;;;20.25;6.85;;;;;;;4.55;85.63;101287.28;5075905;28;20549;-49
2023/03/15 08:45:20;;;;;;;15.77;7.03;;;;;;;4.57;84.22;101293.28;5095200;28;20537;-48
2023/03/15 08:47:47;;;;;;;20.98;7.35;;;;;;;4.61;84.87;101299.19;5072825;28;20048;-51
2023/03/15 08:50:14;;;;;;;18.35;7.28;;;;;;;4.57;84.02;101295.91;5070468;28;20047;-50
2023/03/15 08:52:42;;;;;;;20.77;7.60;;;;;;;4.66;84.56;101304.13;5092138;28;20409;-51
2023/03/15 08:55:13;;;;;;;17.20;6.75;;;;;;;4.67;83.60;101309.28;5097151;28;20100;-48
2023/03/15 08:57:40;;;;;;;18.30;6.38;;;;;;;4.90;81.65;101312.16;5091577;28;20124;-48
2023/03/15 09:00:16;;;;;;;19.05;6.25;;;;;;;4.69;80.50;101314.44;5091733;28;20036;-50
2023/03/15 09:02:47;;;;;;;13.32;6.03;;;;;;;4.48;80.57;101309.66;5087018;28;20044;-51
2023/03/15 09:05:14;;;;;;;12.57;4.82;;;;;;;4.47;81.71;101321.09;5092972;28;20048;-49
2023/03/15 09:07:42;;;;;;;22.77;8.13;;;;;;;4.40;81.96;101314.56;5085380;28;20093;-48
2023/03/15 09:10:13;;;;;;;15.30;4.65;;;;;;;4.55;79.56;101315.38;5065183;28;20048;-52
2023/03/15 09:12:42;;;;;;;18.58;4.50;;;;;;;4.78;80.03;101317.31;5089053;28;20036;-51
2023/03/15 09:15:10;;;;;;;13.82;4.60;;;;;;;5.14;80.47;101314.91;5087369;28;20093;-52
2023/03/15 09:17:38;;;;;;;14.50;4.53;;;;;;;5.14;76.95;101317.53;5088434;28;20032;-52
2023/03/15 09:20:13;;;;;;;72.95;25.00;;;;;;;5.37;73.94;101334.41;5092925;28;20127;-47
2023/03/15 09:22:41;;;;;;;17.80;4.90;;;;;;;5.57;71.08;101330.38;5085119;28;20879;-48
2023/03/15 09:25:08;;;;;;;14.57;4.90;;;;;;;6.09;71.33;101328.50;5089200;28;20060;-48
2023/03/15 09:27:35;;;;;;;13.38;4.20;;;;;;;6.26;68.56;101324.66;5091280;28;20704;-47
2023/03/15 09:30:03;;;;;;;10.55;4.93;;;;;;;6.91;69.13;101326.81;5056747;28;20047;-50
2023/03/15 09:32:34;;;;;;;15.15;6.13;;;;;;;7.91;64.33;101341.16;5075796;28;20040;-48
2023/03/15 09:35:03;;;;;;;15.73;6.45;;;;;;;9.26;59.78;101338.03;5071192;28;20044;-53
2023/03/15 09:37:30;;;;;;;16.13;5.97;;;;;;;10.65;57.83;101342.63;5069175;28;20051;-51
2023/03/15 09:39:57;;;;;;;13.55;5.85;;;;;;;10.25;56.94;101350.66;5060491;28;20058;-51
2023/03/15 09:42:36;;;;;;;21.45;5.70;;;;;;;10.06;57.57;101357.59;5063181;28;20188;-50
2023/03/15 09:45:31;;;;;;;16.58;6.25;;;;;;;8.87;60.35;101355.47;5090576;28;20060;-49
2023/03/15 09:48:23;;;;;;;16.27;6.07;;;;;;;7.44;64.19;101357.13;5079476;28;20035;-51
2023/03/15 09:50:55;;;;;;;17.63;6.05;;;;;;;6.88;68.23;101348.16;5084404;28;20140;-50
2023/03/15 09:53:51;;;;;;;22.30;6.88;;;;;;;6.32;69.66;101356.66;5085485;28;20059;-51
2023/03/15 09:56:24;;;;;;;17.30;6.15;;;;;;;5.95;71.69;101346.13;5088434;28;20039;-52
2023/03/15 09:58:56;;;;;;;19.85;5.85;;;;;;;5.99;72.22;101352.03;5087895;28;20493;-51
2023/03/15 10:01:38;;;;;;;;;;;;;;;5.93;66.80;101348.00;5090467;28;20063;-51
2023/03/15 10:04:28;;;;;;;12.05;4.20;;;;;;;5.72;67.22;101344.25;5085249;28;19920;-52
2023/03/15 10:06:59;;;;;;;11.18;4.57;;;;;;;8.23;59.77;101354.44;5088748;28;20082;-50
2023/03/15 10:09:32;;;;;;;15.13;4.32;;;;;;;11.20;50.71;101349.13;5087113;28;20040;-50
2023/03/15 10:12:20;;;;;;;16.95;4.97;;;;;;;13.50;43.58;101362.16;5089717;28;21538;-51
2023/03/15 10:18:13;;;;;;;13.20;4.57;;;;;;;16.18;38.79;101367.94;5100696;27;20121;-49
2023/03/15 10:20:45;;;;;;;12.30;4.80;;;;;;;16.45;37.35;101371.97;5102144;28;20044;-50
2023/03/15 10:23:37;;;;;;;15.85;5.00;;;;;;;16.11;38.90;101367.81;5097861;28;20504;-52
2023/03/15 10:26:07;;;;;;;16.65;4.75;;;;;;;12.25;44.76;101367.44;5091664;28;20032;-52
2023/03/15 10:28:36;;;;;;;21.70;5.07;;;;;;;11.02;47.31;101370.25;5099052;28;20052;-50
2023/03/15 10:31:12;;;;;;;16.23;4.72;;;;;;;9.66;51.29;101371.69;5093940;28;20431;-54
2023/03/15 10:33:45;;;;;;;18.67;5.10;;;;;;;8.38;54.93;101371.69;5097255;28;20417;-50
2023/03/15 10:36:17;;;;;;;20.13;4.90;;;;;;;9.33;54.95;101367.44;5100518;28;20390;-52
2023/03/15 10:38:45;;;;;;;12.68;4.68;;;;;;;9.37;53.88;101372.38;5100897;28;20054;-55
2023/03/15 10:41:13;;;;;;;17.48;4.18;;;;;;;11.31;48.01;101372.84;5099154;28;20036;-54
2023/03/15 10:43:54;;;;;;;;;;;;;;;13.50;42.86;101376.34;5104645;28;20509;-53
2023/03/15 10:46:23;;;;;;;15.43;3.90;;;;;;;15.84;36.11;101374.44;5102462;28;19920;-53
2023/03/15 10:49:06;;;;;;;13.63;3.50;;;;;;;15.88;33.72;101379.28;5094329;28;20578;-53
2023/03/15 10:51:42;;;;;;;12.77;3.53;;;;;;;17.13;33.57;101382.84;5100455;28;20052;-52
2023/03/15 10:54:15;;;;;;;15.73;3.63;;;;;;;16.21;35.89;101380.97;5100832;28;20054;-50
2023/03/15 10:56:58;;;;;;;11.10;3.25;;;;;;;14.27;37.79;101370.16;5105746;28;20044;-50
2023/03/15 10:59:27;;;;;;;20.23;3.80;;;;;;;12.93;41.88;101368.75;5077935;28;20510;-50
2023/03/15 11:02:19;;;;;;;15.35;4.30;;;;;;;12.05;44.50;101377.34;5100883;28;20040;-50
2023/03/15 11:04:59;;;;;;;14.32;3.70;;;;;;;11.95;44.04;101381.91;5096493;28;20105;-52
2023/03/15 11:07:27;;;;;;;13.05;3.63;;;;;;;12.56;42.39;101390.22;5069915;28;20031;-52
2023/03/15 11:09:58;;;;;;;14.07;3.90;;;;;;;12.53;42.60;101382.53;5044626;28;20815;-53
2023/03/15 11:12:28;;;;;;;12.93;4.00;;;;;;;12.82;43.13;101388.47;5062070;28;20032;-51
2023/03/15 11:15:03;;;;;;;11.10;3.85;;;;;;;11.90;44.22;101386.81;5064432;28;20063;-51
2023/03/15 11:17:36;;;;;;;18.48;3.50;;;;;;;12.23;40.50;101389.88;5068578;28;20060;-50
2023/03/15 11:20:11;;;;;;;;;;;;;;;12.28;41.79;101391.09;5072061;28;20162;-51
2023/03/15 11:22:39;;;;;;;11.52;3.70;;;;;;;12.38;40.98;101393.69;5074253;28;20621;-55
2023/03/15 11:25:15;;;;;;;14.20;3.30;;;;;;;11.18;43.01;101390.91;5069670;28;20485;-52
2023/03/15 11:27:45;;;;;;;12.57;3.28;;;;;;;10.41;44.29;101411.16;5075263;28;20505;-52
2023/03/15 11:30:14;;;;;;;11.75;3.50;;;;;;;9.49;45.69;101404.06;5063938;28;20450;-51
2023/03/15 11:32:43;;;;;;;16.27;3.88;;;;;;;9.13;45.97;101415.00;5063651;28;20048;-51
2023/03/15 11:35:13;;;;;;;17.60;3.83;;;;;;;8.49;47.47;101407.06;5060296;28;20052;-51
2023/03/15 11:37:47;;;;;;;15.73;4.05;;;;;;;11.53;42.07;101404.41;5055919;28;20055;-51
2023/03/15 11:40:36;;;;;;;14.00;3.80;;;;;;;11.09;42.75;101401.41;5063050;28;20045;-53
2023/03/15 11:43:08;;;;;;;16.88;3.33;;;;;;;12.76;41.73;101420.19;5065263;28;20036;-53
2023/03/15 11:45:41;;;;;;;19.73;3.70;;;;;;;12.42;41.27;101415.50;5084743;28;20752;-49
2023/03/15 11:48:51;;;;;;;13.57;3.08;;;;;;;13.47;39.33;101415.81;5091883;28;20040;-49